Terminal Aerodrome Forecast
Issued by NWS Austin/San Antonio, TX

Home | Current Version | Previous Version | Text Only | Print | Product List | Glossary On
Versions: 1 2 3 4 5 6 7 8 9 10 11 12 13 14 15 16 17
596
FTUS44 KEWX 141728
TAFAUS
TAF
KAUS 141728Z 1418/1524 19012G22KT P6SM OVC018
     FM142000 19016G26KT P6SM BKN040
     FM142300 17011KT P6SM FEW040 SCT250
     FM150600 20007KT 6SM BR OVC006
     FM151500 32010KT P6SM BKN015
     FM151700 35012KT P6SM SCT250=

USA.gov is the U.S. government's official web portal to all federal, state and local government web resources and services.